Weather at Caboolture Hospital Helipad

Public forecast

Using degrees Celsius for public forecast. Weather courtesy of forecast.io.

Closest aviation weather report (METAR) to Caboolture Hospital Helipad

Closest report is Brisbane International Airport, 20.1 nm (37.1 km) SSE. Retrieved 2020/10/27 13:30 UTC (22 minutes ago):

YBBN 271330Z 19006KT 8000 -SHRA SCT009 BKN011 BKN025 19/18 Q1017 RESHRA FM1400 19005KT 9999 -SHRA SCT012 BKN020 TEMPO 1400/1630 9999 -SHRA BKN010

Closest aviation forecast (TAF) to Caboolture Hospital Helipad

Closest forecast is Brisbane International Airport, 20.1 nm (37.1 km) SSE. Retrieved 2020/10/27 12:00 UTC (2 hours ago):

TAF YBBN 271101Z 2712/2818 19007KT 9999 -SHRA SCT012 BKN020 FM280000 07010KT 9999 -SHRA SCT035 FM281400 19006KT 9999 -SHRA SCT012 BKN020 TEMPO 2712/2721 9999 -SHRA BKN010 TEMPO 2810/2818 3000 SHRA BKN010 PROB40 TEMPO 2804/2810 VRB30G45KT 1000 TSRA BKN010 SCT030CB